sensor_id;sensor_type;location;lat;lon;timestamp;P1;durP1;ratioP1;P2;durP2;ratioP2
64063;SDS011;50314;50.618;10.642;2023-02-05T00:02:17;5.20;;;3.05;;
64063;SDS011;50314;50.618;10.642;2023-02-05T00:04:42;5.07;;;3.33;;
64063;SDS011;50314;50.618;10.642;2023-02-05T00:07:08;4.45;;;2.85;;
64063;SDS011;50314;50.618;10.642;2023-02-05T00:09:33;4.18;;;3.08;;
64063;SDS011;50314;50.618;10.642;2023-02-05T00:12:00;3.08;;;2.63;;
64063;SDS011;50314;50.618;10.642;2023-02-05T00:14:25;4.10;;;2.90;;
64063;SDS011;50314;50.618;10.642;2023-02-05T00:16:51;3.35;;;2.55;;
64063;SDS011;50314;50.618;10.642;2023-02-05T00:19:17;5.32;;;3.25;;
64063;SDS011;50314;50.618;10.642;2023-02-05T00:21:43;3.75;;;2.78;;
64063;SDS011;50314;50.618;10.642;2023-02-05T00:24:09;4.60;;;3.10;;
64063;SDS011;50314;50.618;10.642;2023-02-05T00:26:35;5.32;;;2.72;;
64063;SDS011;50314;50.618;10.642;2023-02-05T00:29:01;3.90;;;2.70;;
64063;SDS011;50314;50.618;10.642;2023-02-05T00:31:27;5.05;;;3.03;;
64063;SDS011;50314;50.618;10.642;2023-02-05T00:33:53;4.07;;;2.85;;
64063;SDS011;50314;50.618;10.642;2023-02-05T00:36:19;3.67;;;2.70;;
64063;SDS011;50314;50.618;10.642;2023-02-05T00:38:45;4.30;;;2.65;;
64063;SDS011;50314;50.618;10.642;2023-02-05T00:41:12;3.03;;;2.45;;
64063;SDS011;50314;50.618;10.642;2023-02-05T00:43:38;4.68;;;2.70;;
64063;SDS011;50314;50.618;10.642;2023-02-05T00:46:04;3.35;;;2.55;;
64063;SDS011;50314;50.618;10.642;2023-02-05T00:48:31;3.55;;;2.47;;
64063;SDS011;50314;50.618;10.642;2023-02-05T00:50:56;3.85;;;2.67;;
64063;SDS011;50314;50.618;10.642;2023-02-05T00:53:22;3.30;;;2.58;;
64063;SDS011;50314;50.618;10.642;2023-02-05T00:55:50;3.70;;;2.47;;
64063;SDS011;50314;50.618;10.642;2023-02-05T00:58:16;3.97;;;2.60;;
64063;SDS011;50314;50.618;10.642;2023-02-05T01:00:42;3.10;;;2.30;;
64063;SDS011;50314;50.618;10.642;2023-02-05T01:03:08;3.53;;;2.40;;
64063;SDS011;50314;50.618;10.642;2023-02-05T01:05:34;3.90;;;2.13;;
64063;SDS011;50314;50.618;10.642;2023-02-05T01:08:00;3.53;;;2.47;;
64063;SDS011;50314;50.618;10.642;2023-02-05T01:10:26;4.10;;;2.17;;
64063;SDS011;50314;50.618;10.642;2023-02-05T01:12:52;3.38;;;2.45;;
64063;SDS011;50314;50.618;10.642;2023-02-05T01:15:17;3.97;;;2.70;;
64063;SDS011;50314;50.618;10.642;2023-02-05T01:17:43;3.35;;;2.65;;
64063;SDS011;50314;50.618;10.642;2023-02-05T01:20:09;4.30;;;2.50;;
64063;SDS011;50314;50.618;10.642;2023-02-05T01:22:37;4.13;;;2.60;;
64063;SDS011;50314;50.618;10.642;2023-02-05T01:25:02;3.28;;;2.53;;
64063;SDS011;50314;50.618;10.642;2023-02-05T01:27:28;4.35;;;2.70;;
64063;SDS011;50314;50.618;10.642;2023-02-05T01:32:21;3.97;;;2.67;;
64063;SDS011;50314;50.618;10.642;2023-02-05T01:34:46;3.25;;;2.35;;
64063;SDS011;50314;50.618;10.642;2023-02-05T01:37:12;4.93;;;3.15;;
64063;SDS011;50314;50.618;10.642;2023-02-05T01:39:37;4.00;;;2.38;;
64063;SDS011;50314;50.618;10.642;2023-02-05T01:42:03;5.00;;;2.95;;
64063;SDS011;50314;50.618;10.642;2023-02-05T01:44:39;3.67;;;2.33;;
64063;SDS011;50314;50.618;10.642;2023-02-05T01:47:05;3.47;;;2.53;;
64063;SDS011;50314;50.618;10.642;2023-02-05T01:49:31;3.85;;;2.70;;
64063;SDS011;50314;50.618;10.642;2023-02-05T01:52:02;3.22;;;2.38;;
64063;SDS011;50314;50.618;10.642;2023-02-05T01:54:31;3.53;;;2.47;;
64063;SDS011;50314;50.618;10.642;2023-02-05T01:57:00;3.05;;;2.22;;
64063;SDS011;50314;50.618;10.642;2023-02-05T01:59:31;4.30;;;2.35;;
64063;SDS011;50314;50.618;10.642;2023-02-05T02:02:00;3.92;;;2.58;;
64063;SDS011;50314;50.618;10.642;2023-02-05T02:04:43;3.38;;;2.50;;
64063;SDS011;50314;50.618;10.642;2023-02-05T02:07:15;4.18;;;2.65;;
64063;SDS011;50314;50.618;10.642;2023-02-05T02:09:44;2.85;;;2.25;;
64063;SDS011;50314;50.618;10.642;2023-02-05T02:12:11;2.72;;;2.22;;
64063;SDS011;50314;50.618;10.642;2023-02-05T02:14:41;3.30;;;2.50;;
64063;SDS011;50314;50.618;10.642;2023-02-05T02:17:11;2.83;;;2.10;;
64063;SDS011;50314;50.618;10.642;2023-02-05T02:19:39;3.17;;;2.13;;
64063;SDS011;50314;50.618;10.642;2023-02-05T02:27:48;3.05;;;2.10;;
64063;SDS011;50314;50.618;10.642;2023-02-05T02:30:31;3.50;;;2.33;;
64063;SDS011;50314;50.618;10.642;2023-02-05T02:35:43;4.05;;;2.42;;
64063;SDS011;50314;50.618;10.642;2023-02-05T02:40:54;2.83;;;2.22;;
64063;SDS011;50314;50.618;10.642;2023-02-05T02:43:27;3.58;;;2.47;;
64063;SDS011;50314;50.618;10.642;2023-02-05T02:46:07;3.08;;;1.80;;
64063;SDS011;50314;50.618;10.642;2023-02-05T02:48:40;3.58;;;2.45;;
64063;SDS011;50314;50.618;10.642;2023-02-05T02:51:07;2.70;;;1.95;;
64063;SDS011;50314;50.618;10.642;2023-02-05T02:53:36;3.47;;;2.53;;
64063;SDS011;50314;50.618;10.642;2023-02-05T02:56:05;3.35;;;2.22;;
64063;SDS011;50314;50.618;10.642;2023-02-05T02:58:35;3.33;;;1.85;;
64063;SDS011;50314;50.618;10.642;2023-02-05T03:01:04;3.42;;;2.20;;
64063;SDS011;50314;50.618;10.642;2023-02-05T03:03:34;3.45;;;2.40;;
64063;SDS011;50314;50.618;10.642;2023-02-05T03:06:04;3.80;;;2.15;;
64063;SDS011;50314;50.618;10.642;2023-02-05T03:08:40;2.95;;;2.22;;
64063;SDS011;50314;50.618;10.642;2023-02-05T03:11:15;3.13;;;2.13;;
64063;SDS011;50314;50.618;10.642;2023-02-05T03:13:41;2.75;;;2.22;;
64063;SDS011;50314;50.618;10.642;2023-02-05T03:16:08;3.40;;;2.03;;
64063;SDS011;50314;50.618;10.642;2023-02-05T03:18:35;2.28;;;1.67;;
64063;SDS011;50314;50.618;10.642;2023-02-05T03:21:03;2.55;;;1.83;;
64063;SDS011;50314;50.618;10.642;2023-02-05T03:23:33;3.22;;;1.98;;
64063;SDS011;50314;50.618;10.642;2023-02-05T03:25:58;3.25;;;1.73;;
64063;SDS011;50314;50.618;10.642;2023-02-05T03:28:24;2.97;;;2.13;;
64063;SDS011;50314;50.618;10.642;2023-02-05T03:31:00;3.15;;;2.13;;
64063;SDS011;50314;50.618;10.642;2023-02-05T03:36:24;2.47;;;1.70;;
64063;SDS011;50314;50.618;10.642;2023-02-05T03:39:00;2.85;;;1.80;;
64063;SDS011;50314;50.618;10.642;2023-02-05T03:45:07;2.00;;;1.70;;
64063;SDS011;50314;50.618;10.642;2023-02-05T03:49:59;2.95;;;1.92;;
64063;SDS011;50314;50.618;10.642;2023-02-05T03:52:44;3.00;;;2.03;;
64063;SDS011;50314;50.618;10.642;2023-02-05T03:55:19;2.53;;;1.90;;
64063;SDS011;50314;50.618;10.642;2023-02-05T04:00:18;2.92;;;1.80;;
64063;SDS011;50314;50.618;10.642;2023-02-05T04:02:44;3.40;;;2.13;;
64063;SDS011;50314;50.618;10.642;2023-02-05T04:05:10;2.97;;;1.92;;
64063;SDS011;50314;50.618;10.642;2023-02-05T04:07:36;2.58;;;1.77;;
64063;SDS011;50314;50.618;10.642;2023-02-05T04:10:01;2.80;;;2.00;;
64063;SDS011;50314;50.618;10.642;2023-02-05T04:12:27;2.15;;;1.70;;
64063;SDS011;50314;50.618;10.642;2023-02-05T04:14:52;2.83;;;2.22;;
64063;SDS011;50314;50.618;10.642;2023-02-05T04:17:18;2.45;;;1.88;;
64063;SDS011;50314;50.618;10.642;2023-02-05T04:19:43;2.55;;;1.77;;
64063;SDS011;50314;50.618;10.642;2023-02-05T04:22:08;2.40;;;1.67;;
64063;SDS011;50314;50.618;10.642;2023-02-05T04:24:34;3.08;;;1.90;;
64063;SDS011;50314;50.618;10.642;2023-02-05T04:26:59;3.42;;;1.83;;
64063;SDS011;50314;50.618;10.642;2023-02-05T04:29:25;2.90;;;1.83;;
64063;SDS011;50314;50.618;10.642;2023-02-05T04:31:51;2.03;;;1.50;;
64063;SDS011;50314;50.618;10.642;2023-02-05T04:34:17;2.72;;;1.55;;
64063;SDS011;50314;50.618;10.642;2023-02-05T04:36:42;3.72;;;1.70;;
64063;SDS011;50314;50.618;10.642;2023-02-05T04:41:35;2.23;;;1.70;;
64063;SDS011;50314;50.618;10.642;2023-02-05T04:44:00;1.83;;;1.50;;
64063;SDS011;50314;50.618;10.642;2023-02-05T04:46:25;2.70;;;1.93;;
64063;SDS011;50314;50.618;10.642;2023-02-05T04:48:51;2.15;;;1.55;;
64063;SDS011;50314;50.618;10.642;2023-02-05T04:51:16;2.97;;;1.67;;
64063;SDS011;50314;50.618;10.642;2023-02-05T04:53:42;2.10;;;1.40;;
64063;SDS011;50314;50.618;10.642;2023-02-05T04:56:09;2.63;;;1.63;;
64063;SDS011;50314;50.618;10.642;2023-02-05T04:58:39;2.90;;;1.75;;
64063;SDS011;50314;50.618;10.642;2023-02-05T05:01:16;2.63;;;1.70;;
64063;SDS011;50314;50.618;10.642;2023-02-05T05:03:44;1.98;;;1.70;;
64063;SDS011;50314;50.618;10.642;2023-02-05T05:06:10;2.10;;;1.50;;
64063;SDS011;50314;50.618;10.642;2023-02-05T05:08:36;1.92;;;1.73;;
64063;SDS011;50314;50.618;10.642;2023-02-05T05:11:09;2.40;;;1.67;;
64063;SDS011;50314;50.618;10.642;2023-02-05T05:13:39;2.67;;;1.38;;
64063;SDS011;50314;50.618;10.642;2023-02-05T05:16:06;2.00;;;1.63;;
64063;SDS011;50314;50.618;10.642;2023-02-05T05:18:32;2.10;;;1.40;;
64063;SDS011;50314;50.618;10.642;2023-02-05T05:20:58;1.90;;;1.50;;
64063;SDS011;50314;50.618;10.642;2023-02-05T05:23:24;2.05;;;1.50;;
64063;SDS011;50314;50.618;10.642;2023-02-05T05:25:50;2.60;;;1.73;;
64063;SDS011;50314;50.618;10.642;2023-02-05T05:28:16;1.88;;;1.52;;
64063;SDS011;50314;50.618;10.642;2023-02-05T05:30:43;2.85;;;1.92;;
64063;SDS011;50314;50.618;10.642;2023-02-05T05:33:10;1.65;;;1.30;;
64063;SDS011;50314;50.618;10.642;2023-02-05T05:35:36;1.75;;;1.50;;
64063;SDS011;50314;50.618;10.642;2023-02-05T05:38:01;1.73;;;1.58;;
64063;SDS011;50314;50.618;10.642;2023-02-05T05:40:27;3.22;;;1.85;;
64063;SDS011;50314;50.618;10.642;2023-02-05T05:43:13;1.42;;;1.20;;
64063;SDS011;50314;50.618;10.642;2023-02-05T05:45:59;2.03;;;1.23;;
64063;SDS011;50314;50.618;10.642;2023-02-05T05:48:24;2.67;;;1.58;;
64063;SDS011;50314;50.618;10.642;2023-02-05T05:50:50;1.45;;;1.25;;
64063;SDS011;50314;50.618;10.642;2023-02-05T05:53:15;1.90;;;1.48;;
64063;SDS011;50314;50.618;10.642;2023-02-05T05:55:41;2.05;;;1.50;;
64063;SDS011;50314;50.618;10.642;2023-02-05T05:58:07;2.50;;;2.15;;
64063;SDS011;50314;50.618;10.642;2023-02-05T06:00:33;2.03;;;1.52;;
64063;SDS011;50314;50.618;10.642;2023-02-05T06:02:59;1.05;;;0.93;;
64063;SDS011;50314;50.618;10.642;2023-02-05T06:05:25;2.35;;;1.30;;
64063;SDS011;50314;50.618;10.642;2023-02-05T06:07:50;1.63;;;1.17;;
64063;SDS011;50314;50.618;10.642;2023-02-05T06:10:15;1.60;;;1.17;;
64063;SDS011;50314;50.618;10.642;2023-02-05T06:12:41;2.33;;;1.35;;
64063;SDS011;50314;50.618;10.642;2023-02-05T06:15:06;2.58;;;1.38;;
64063;SDS011;50314;50.618;10.642;2023-02-05T06:17:32;1.60;;;1.50;;
64063;SDS011;50314;50.618;10.642;2023-02-05T06:19:58;2.00;;;1.40;;
64063;SDS011;50314;50.618;10.642;2023-02-05T06:22:23;2.00;;;1.42;;
64063;SDS011;50314;50.618;10.642;2023-02-05T06:24:49;2.10;;;1.33;;
64063;SDS011;50314;50.618;10.642;2023-02-05T06:27:14;1.63;;;1.40;;
64063;SDS011;50314;50.618;10.642;2023-02-05T06:29:39;1.85;;;1.30;;
64063;SDS011;50314;50.618;10.642;2023-02-05T06:32:05;1.98;;;1.48;;
64063;SDS011;50314;50.618;10.642;2023-02-05T06:34:30;1.52;;;1.42;;
64063;SDS011;50314;50.618;10.642;2023-02-05T06:36:56;1.83;;;1.30;;
64063;SDS011;50314;50.618;10.642;2023-02-05T06:39:21;2.67;;;1.23;;
64063;SDS011;50314;50.618;10.642;2023-02-05T06:41:47;1.42;;;1.27;;
64063;SDS011;50314;50.618;10.642;2023-02-05T06:44:12;1.70;;;1.30;;
64063;SDS011;50314;50.618;10.642;2023-02-05T06:46:38;2.20;;;1.38;;
64063;SDS011;50314;50.618;10.642;2023-02-05T06:49:03;2.03;;;1.65;;
64063;SDS011;50314;50.618;10.642;2023-02-05T06:51:29;2.15;;;1.50;;
64063;SDS011;50314;50.618;10.642;2023-02-05T06:53:54;1.40;;;1.25;;
64063;SDS011;50314;50.618;10.642;2023-02-05T06:56:21;1.92;;;1.20;;
64063;SDS011;50314;50.618;10.642;2023-02-05T06:58:48;1.73;;;1.13;;
64063;SDS011;50314;50.618;10.642;2023-02-05T07:01:13;1.20;;;1.05;;
64063;SDS011;50314;50.618;10.642;2023-02-05T07:03:39;1.33;;;1.23;;
64063;SDS011;50314;50.618;10.642;2023-02-05T07:06:04;1.80;;;1.55;;
64063;SDS011;50314;50.618;10.642;2023-02-05T07:08:30;2.17;;;1.17;;
64063;SDS011;50314;50.618;10.642;2023-02-05T07:10:56;1.70;;;1.13;;
64063;SDS011;50314;50.618;10.642;2023-02-05T07:13:21;1.25;;;1.10;;
64063;SDS011;50314;50.618;10.642;2023-02-05T07:15:47;1.67;;;1.30;;
64063;SDS011;50314;50.618;10.642;2023-02-05T07:18:13;2.03;;;1.25;;
64063;SDS011;50314;50.618;10.642;2023-02-05T07:20:39;1.75;;;1.27;;
64063;SDS011;50314;50.618;10.642;2023-02-05T07:23:04;2.10;;;2.00;;
64063;SDS011;50314;50.618;10.642;2023-02-05T07:25:30;1.80;;;1.70;;
64063;SDS011;50314;50.618;10.642;2023-02-05T07:28:00;1.60;;;1.10;;
64063;SDS011;50314;50.618;10.642;2023-02-05T07:30:26;1.92;;;1.35;;
64063;SDS011;50314;50.618;10.642;2023-02-05T07:32:52;2.08;;;1.60;;
64063;SDS011;50314;50.618;10.642;2023-02-05T07:35:17;1.55;;;1.30;;
64063;SDS011;50314;50.618;10.642;2023-02-05T07:37:43;1.60;;;1.27;;
64063;SDS011;50314;50.618;10.642;2023-02-05T07:40:08;1.85;;;1.65;;
64063;SDS011;50314;50.618;10.642;2023-02-05T07:42:34;1.67;;;1.30;;
64063;SDS011;50314;50.618;10.642;2023-02-05T07:45:00;2.55;;;1.58;;
64063;SDS011;50314;50.618;10.642;2023-02-05T07:47:25;2.45;;;1.40;;
64063;SDS011;50314;50.618;10.642;2023-02-05T07:49:51;1.80;;;1.52;;
64063;SDS011;50314;50.618;10.642;2023-02-05T07:52:16;1.90;;;1.50;;
64063;SDS011;50314;50.618;10.642;2023-02-05T07:54:42;1.63;;;1.35;;
64063;SDS011;50314;50.618;10.642;2023-02-05T07:57:07;1.85;;;1.40;;
64063;SDS011;50314;50.618;10.642;2023-02-05T07:59:33;1.90;;;1.45;;
64063;SDS011;50314;50.618;10.642;2023-02-05T08:01:58;2.10;;;1.63;;
64063;SDS011;50314;50.618;10.642;2023-02-05T08:04:24;2.03;;;1.70;;
64063;SDS011;50314;50.618;10.642;2023-02-05T08:06:49;2.30;;;1.80;;
64063;SDS011;50314;50.618;10.642;2023-02-05T08:09:15;2.42;;;1.58;;
64063;SDS011;50314;50.618;10.642;2023-02-05T08:11:41;1.98;;;1.52;;
64063;SDS011;50314;50.618;10.642;2023-02-05T08:14:06;1.90;;;1.50;;
64063;SDS011;50314;50.618;10.642;2023-02-05T08:16:32;3.25;;;1.92;;
64063;SDS011;50314;50.618;10.642;2023-02-05T08:18:57;1.80;;;1.38;;
64063;SDS011;50314;50.618;10.642;2023-02-05T08:21:23;2.70;;;1.95;;
64063;SDS011;50314;50.618;10.642;2023-02-05T08:23:49;2.15;;;1.73;;
64063;SDS011;50314;50.618;10.642;2023-02-05T08:26:14;1.90;;;1.55;;
64063;SDS011;50314;50.618;10.642;2023-02-05T08:28:40;2.20;;;1.60;;
64063;SDS011;50314;50.618;10.642;2023-02-05T08:31:14;2.15;;;1.80;;
64063;SDS011;50314;50.618;10.642;2023-02-05T08:33:42;2.35;;;1.75;;
64063;SDS011;50314;50.618;10.642;2023-02-05T08:36:07;1.95;;;1.50;;
64063;SDS011;50314;50.618;10.642;2023-02-05T08:38:33;2.10;;;1.70;;
64063;SDS011;50314;50.618;10.642;2023-02-05T08:41:02;3.45;;;2.10;;
64063;SDS011;50314;50.618;10.642;2023-02-05T08:43:38;2.35;;;1.85;;
64063;SDS011;50314;50.618;10.642;2023-02-05T08:46:09;2.40;;;2.17;;
64063;SDS011;50314;50.618;10.642;2023-02-05T08:48:35;2.85;;;1.77;;
64063;SDS011;50314;50.618;10.642;2023-02-05T08:51:01;2.85;;;1.77;;
64063;SDS011;50314;50.618;10.642;2023-02-05T08:53:27;2.88;;;1.60;;
64063;SDS011;50314;50.618;10.642;2023-02-05T08:55:57;3.30;;;2.13;;
64063;SDS011;50314;50.618;10.642;2023-02-05T08:58:24;3.10;;;2.10;;
64063;SDS011;50314;50.618;10.642;2023-02-05T09:00:50;2.67;;;2.08;;
64063;SDS011;50314;50.618;10.642;2023-02-05T09:03:16;2.28;;;1.98;;
64063;SDS011;50314;50.618;10.642;2023-02-05T09:05:42;2.55;;;1.73;;
64063;SDS011;50314;50.618;10.642;2023-02-05T09:08:07;3.08;;;2.10;;
64063;SDS011;50314;50.618;10.642;2023-02-05T09:10:33;2.63;;;1.88;;
64063;SDS011;50314;50.618;10.642;2023-02-05T09:12:59;3.08;;;1.92;;
64063;SDS011;50314;50.618;10.642;2023-02-05T09:15:24;3.25;;;2.13;;
64063;SDS011;50314;50.618;10.642;2023-02-05T09:17:50;3.47;;;2.33;;
64063;SDS011;50314;50.618;10.642;2023-02-05T09:20:15;4.78;;;2.75;;
64063;SDS011;50314;50.618;10.642;2023-02-05T09:22:41;3.13;;;2.15;;
64063;SDS011;50314;50.618;10.642;2023-02-05T09:25:07;2.72;;;2.00;;
64063;SDS011;50314;50.618;10.642;2023-02-05T09:27:33;3.45;;;2.40;;
64063;SDS011;50314;50.618;10.642;2023-02-05T09:29:58;4.07;;;2.38;;
64063;SDS011;50314;50.618;10.642;2023-02-05T09:32:24;4.00;;;2.33;;
64063;SDS011;50314;50.618;10.642;2023-02-05T09:34:49;5.15;;;2.15;;
64063;SDS011;50314;50.618;10.642;2023-02-05T09:37:15;9.38;;;2.80;;
64063;SDS011;50314;50.618;10.642;2023-02-05T09:39:41;14.57;;;3.83;;
64063;SDS011;50314;50.618;10.642;2023-02-05T09:42:12;10.52;;;3.80;;
64063;SDS011;50314;50.618;10.642;2023-02-05T09:44:59;12.02;;;4.43;;
64063;SDS011;50314;50.618;10.642;2023-02-05T09:47:33;14.18;;;3.47;;
64063;SDS011;50314;50.618;10.642;2023-02-05T09:52:53;9.18;;;4.75;;
64063;SDS011;50314;50.618;10.642;2023-02-05T09:55:25;11.43;;;4.97;;
64063;SDS011;50314;50.618;10.642;2023-02-05T09:57:54;9.60;;;4.97;;
64063;SDS011;50314;50.618;10.642;2023-02-05T10:00:27;7.82;;;6.13;;
64063;SDS011;50314;50.618;10.642;2023-02-05T10:03:16;10.25;;;5.70;;
64063;SDS011;50314;50.618;10.642;2023-02-05T10:14:24;14.88;;;13.23;;
64063;SDS011;50314;50.618;10.642;2023-02-05T10:22:27;55.22;;;50.42;;
64063;SDS011;50314;50.618;10.642;2023-02-05T10:27:41;144.23;;;132.00;;
64063;SDS011;50314;50.618;10.642;2023-02-05T10:33:07;272.10;;;250.05;;
64063;SDS011;50314;50.618;10.642;2023-02-05T10:38:24;351.65;;;321.27;;
64063;SDS011;50314;50.618;10.642;2023-02-05T10:40:55;259.60;;;236.98;;
64063;SDS011;50314;50.618;10.642;2023-02-05T10:43:28;246.32;;;224.85;;
64063;SDS011;50314;50.618;10.642;2023-02-05T10:46:03;232.20;;;211.45;;
64063;SDS011;50314;50.618;10.642;2023-02-05T10:51:21;319.48;;;290.27;;
64063;SDS011;50314;50.618;10.642;2023-02-05T10:53:55;342.20;;;310.52;;
64063;SDS011;50314;50.618;10.642;2023-02-05T10:58:59;331.98;;;300.42;;
64063;SDS011;50314;50.618;10.642;2023-02-05T11:01:34;338.55;;;306.33;;
64063;SDS011;50314;50.618;10.642;2023-02-05T11:04:05;342.67;;;309.63;;
64063;SDS011;50314;50.618;10.642;2023-02-05T11:06:39;351.95;;;318.15;;
64063;SDS011;50314;50.618;10.642;2023-02-05T11:09:27;352.42;;;318.27;;
64063;SDS011;50314;50.618;10.642;2023-02-05T11:12:02;355.27;;;321.00;;
64063;SDS011;50314;50.618;10.642;2023-02-05T11:16:57;371.77;;;334.92;;
64063;SDS011;50314;50.618;10.642;2023-02-05T11:21:53;364.38;;;328.10;;
64063;SDS011;50314;50.618;10.642;2023-02-05T11:24:22;369.52;;;332.27;;
64063;SDS011;50314;50.618;10.642;2023-02-05T11:27:12;389.55;;;;;
64063;SDS011;50314;50.618;10.642;2023-02-05T11:29:43;422.52;;;378.95;;
64063;SDS011;50314;50.618;10.642;2023-02-05T11:32:18;486.52;;;438.55;;
64063;SDS011;50314;50.618;10.642;2023-02-05T11:34:45;579.25;;;524.15;;
64063;SDS011;50314;50.618;10.642;2023-02-05T11:37:15;636.15;;;576.20;;
64063;SDS011;50314;50.618;10.642;2023-02-05T11:39:43;729.92;;;658.35;;
64063;SDS011;50314;50.618;10.642;2023-02-05T11:42:18;807.97;;;724.42;;
64063;SDS011;50314;50.618;10.642;2023-02-05T11:44:49;855.90;;;763.65;;
64063;SDS011;50314;50.618;10.642;2023-02-05T11:47:26;896.88;;;794.92;;
64063;SDS011;50314;50.618;10.642;2023-02-05T11:49:54;1004.42;;;823.28;;
64063;SDS011;50314;50.618;10.642;2023-02-05T11:52:32;1055.63;;;839.22;;
64063;SDS011;50314;50.618;10.642;2023-02-05T11:55:00;1104.20;;;848.45;;
64063;SDS011;50314;50.618;10.642;2023-02-05T11:57:33;1144.05;;;860.63;;
64063;SDS011;50314;50.618;10.642;2023-02-05T12:02:43;1188.20;;;868.28;;
64063;SDS011;50314;50.618;10.642;2023-02-05T12:10:13;1171.72;;;858.78;;
64063;SDS011;50314;50.618;10.642;2023-02-05T12:12:51;1152.95;;;848.50;;
64063;SDS011;50314;50.618;10.642;2023-02-05T12:15:36;1137.03;;;838.63;;
64063;SDS011;50314;50.618;10.642;2023-02-05T12:18:49;1114.63;;;830.83;;
64063;SDS011;50314;50.618;10.642;2023-02-05T12:21:54;1100.15;;;822.83;;
64063;SDS011;50314;50.618;10.642;2023-02-05T12:32:15;1004.35;;;784.53;;
64063;SDS011;50314;50.618;10.642;2023-02-05T12:37:48;957.00;;;764.90;;
64063;SDS011;50314;50.618;10.642;2023-02-05T12:40:35;936.97;;;750.60;;
64063;SDS011;50314;50.618;10.642;2023-02-05T12:43:23;909.80;;;737.40;;
64063;SDS011;50314;50.618;10.642;2023-02-05T12:49:22;869.55;;;717.65;;
64063;SDS011;50314;50.618;10.642;2023-02-05T12:59:27;804.00;;;675.95;;
64063;SDS011;50314;50.618;10.642;2023-02-05T13:02:48;789.45;;;665.45;;
64063;SDS011;50314;50.618;10.642;2023-02-05T13:07:40;731.63;;;617.55;;
64063;SDS011;50314;50.618;10.642;2023-02-05T13:10:17;682.33;;;578.60;;
64063;SDS011;50314;50.618;10.642;2023-02-05T13:12:54;667.80;;;573.22;;
64063;SDS011;50314;50.618;10.642;2023-02-05T13:15:29;631.92;;;531.47;;
64063;SDS011;50314;50.618;10.642;2023-02-05T13:18:16;560.60;;;470.77;;
64063;SDS011;50314;50.618;10.642;2023-02-05T13:20:54;544.40;;;456.15;;
64063;SDS011;50314;50.618;10.642;2023-02-05T13:23:41;529.63;;;442.00;;
64063;SDS011;50314;50.618;10.642;2023-02-05T13:26:30;512.25;;;418.92;;
64063;SDS011;50314;50.618;10.642;2023-02-05T13:29:17;498.90;;;398.98;;
64063;SDS011;50314;50.618;10.642;2023-02-05T13:31:53;478.38;;;386.30;;
64063;SDS011;50314;50.618;10.642;2023-02-05T13:34:22;459.08;;;355.83;;
64063;SDS011;50314;50.618;10.642;2023-02-05T13:37:01;447.60;;;348.17;;
64063;SDS011;50314;50.618;10.642;2023-02-05T13:56:21;358.35;;;261.75;;
64063;SDS011;50314;50.618;10.642;2023-02-05T13:58:34;342.55;;;250.95;;
64063;SDS011;50314;50.618;10.642;2023-02-05T14:03:57;327.65;;;240.27;;
64063;SDS011;50314;50.618;10.642;2023-02-05T14:06:29;317.98;;;230.15;;
64063;SDS011;50314;50.618;10.642;2023-02-05T14:09:04;308.60;;;221.52;;
64063;SDS011;50314;50.618;10.642;2023-02-05T14:11:50;302.00;;;220.02;;
64063;SDS011;50314;50.618;10.642;2023-02-05T14:14:40;294.58;;;208.63;;
64063;SDS011;50314;50.618;10.642;2023-02-05T14:20:28;268.00;;;189.98;;
64063;SDS011;50314;50.618;10.642;2023-02-05T14:22:49;262.30;;;182.73;;
64063;SDS011;50314;50.618;10.642;2023-02-05T14:30:44;241.00;;;165.00;;
64063;SDS011;50314;50.618;10.642;2023-02-05T14:36:25;231.85;;;153.80;;
64063;SDS011;50314;50.618;10.642;2023-02-05T14:38:52;218.30;;;147.75;;
64063;SDS011;50314;50.618;10.642;2023-02-05T14:41:24;216.50;;;150.32;;
64063;SDS011;50314;50.618;10.642;2023-02-05T14:44:02;202.50;;;136.82;;
64063;SDS011;50314;50.618;10.642;2023-02-05T14:46:34;198.98;;;132.93;;
64063;SDS011;50314;50.618;10.642;2023-02-05T14:49:04;195.60;;;130.77;;
64063;SDS011;50314;50.618;10.642;2023-02-05T14:51:37;189.57;;;128.02;;
64063;SDS011;50314;50.618;10.642;2023-02-05T14:54:15;183.57;;;127.35;;
64063;SDS011;50314;50.618;10.642;2023-02-05T14:56:46;181.77;;;126.22;;
64063;SDS011;50314;50.618;10.642;2023-02-05T15:08:25;162.15;;;113.60;;
64063;SDS011;50314;50.618;10.642;2023-02-05T15:13:30;153.77;;;109.07;;
64063;SDS011;50314;50.618;10.642;2023-02-05T15:24:14;130.18;;;98.00;;
64063;SDS011;50314;50.618;10.642;2023-02-05T15:27:00;124.22;;;95.80;;
64063;SDS011;50314;50.618;10.642;2023-02-05T15:29:36;120.18;;;94.57;;
64063;SDS011;50314;50.618;10.642;2023-02-05T15:32:17;121.82;;;95.80;;
64063;SDS011;50314;50.618;10.642;2023-02-05T15:34:52;115.80;;;93.43;;
64063;SDS011;50314;50.618;10.642;2023-02-05T15:37:37;114.32;;;95.00;;
64063;SDS011;50314;50.618;10.642;2023-02-05T15:40:17;108.78;;;91.72;;
64063;SDS011;50314;50.618;10.642;2023-02-05T15:42:46;111.53;;;96.85;;
64063;SDS011;50314;50.618;10.642;2023-02-05T15:48:04;108.38;;;94.50;;
64063;SDS011;50314;50.618;10.642;2023-02-05T15:50:48;101.07;;;89.95;;
64063;SDS011;50314;50.618;10.642;2023-02-05T15:56:13;96.90;;;86.63;;
64063;SDS011;50314;50.618;10.642;2023-02-05T15:58:40;96.90;;;86.53;;
64063;SDS011;50314;50.618;10.642;2023-02-05T16:01:20;92.35;;;82.55;;
64063;SDS011;50314;50.618;10.642;2023-02-05T16:03:47;93.38;;;83.68;;
64063;SDS011;50314;50.618;10.642;2023-02-05T16:06:19;88.80;;;79.53;;
64063;SDS011;50314;50.618;10.642;2023-02-05T16:08:46;85.15;;;76.05;;
64063;SDS011;50314;50.618;10.642;2023-02-05T16:11:24;81.70;;;73.05;;
64063;SDS011;50314;50.618;10.642;2023-02-05T16:17:27;78.75;;;70.38;;
64063;SDS011;50314;50.618;10.642;2023-02-05T16:19:33;73.43;;;65.70;;
64063;SDS011;50314;50.618;10.642;2023-02-05T16:22:15;72.32;;;64.68;;
64063;SDS011;50314;50.618;10.642;2023-02-05T16:24:52;64.93;;;58.25;;
64063;SDS011;50314;50.618;10.642;2023-02-05T16:27:44;66.50;;;59.53;;
64063;SDS011;50314;50.618;10.642;2023-02-05T16:30:21;60.78;;;54.38;;
64063;SDS011;50314;50.618;10.642;2023-02-05T16:32:54;63.47;;;56.90;;
64063;SDS011;50314;50.618;10.642;2023-02-05T16:35:26;57.10;;;51.08;;
64063;SDS011;50314;50.618;10.642;2023-02-05T16:37:55;53.85;;;48.03;;
64063;SDS011;50314;50.618;10.642;2023-02-05T16:48:30;45.47;;;40.72;;
64063;SDS011;50314;50.618;10.642;2023-02-05T16:50:56;45.30;;;40.45;;
64063;SDS011;50314;50.618;10.642;2023-02-05T16:53:23;44.58;;;39.25;;
64063;SDS011;50314;50.618;10.642;2023-02-05T16:56:11;40.65;;;36.33;;
64063;SDS011;50314;50.618;10.642;2023-02-05T16:58:50;40.72;;;36.38;;
64063;SDS011;50314;50.618;10.642;2023-02-05T17:01:23;39.13;;;34.85;;
64063;SDS011;50314;50.618;10.642;2023-02-05T17:03:54;38.25;;;34.15;;
64063;SDS011;50314;50.618;10.642;2023-02-05T17:06:20;37.03;;;33.00;;
64063;SDS011;50314;50.618;10.642;2023-02-05T17:08:50;35.08;;;31.48;;
64063;SDS011;50314;50.618;10.642;2023-02-05T17:11:35;34.13;;;29.90;;
64063;SDS011;50314;50.618;10.642;2023-02-05T17:16:38;31.40;;;27.88;;
64063;SDS011;50314;50.618;10.642;2023-02-05T17:19:18;28.65;;;25.05;;
64063;SDS011;50314;50.618;10.642;2023-02-05T17:24:37;25.70;;;22.05;;